Time;durP1;ratioP1;P1;durP2;ratioP2;P2;SDS_P1;SDS_P2;PMS_P1;PMS_P2;Temp;Humidity;BMP_temperature;BMP_pressure;BME280_temperature;BME280_humidity;BME280_pressure;Samples;Min_cycle;Max_cycle;Signal;HPM_P1;HPM_P2
2021/10/05 00:01:51;;;;;;;1.90;0.82;;;12.60;87.90;;;;;;5103114;27;20067;-65
2021/10/05 00:04:17;;;;;;;4.65;0.82;;;12.70;87.80;;;;;;5098105;28;20122;-65
2021/10/05 00:06:43;;;;;;;5.93;1.00;;;12.60;87.60;;;;;;5104185;27;20086;-64
2021/10/05 00:09:08;;;;;;;5.68;0.82;;;12.70;87.40;;;;;;5104093;27;20736;-64
2021/10/05 00:11:34;;;;;;;6.25;1.10;;;12.70;87.20;;;;;;5107649;27;20032;-64
2021/10/05 00:14:00;;;;;;;3.15;0.75;;;12.80;87.20;;;;;;5109290;27;20042;-64
2021/10/05 00:16:26;;;;;;;4.60;0.90;;;12.70;87.10;;;;;;5103097;27;20039;-64
2021/10/05 00:18:52;;;;;;;4.88;1.10;;;12.70;87.20;;;;;;5105266;27;20499;-65
2021/10/05 00:21:18;;;;;;;2.10;0.93;;;12.70;87.50;;;;;;5100407;27;20399;-64
2021/10/05 00:23:44;;;;;;;4.63;0.98;;;12.70;87.60;;;;;;5102747;27;20116;-64
2021/10/05 00:26:10;;;;;;;2.30;0.95;;;12.70;87.60;;;;;;5107943;27;20507;-64
2021/10/05 00:28:36;;;;;;;4.18;0.95;;;12.70;87.50;;;;;;5107147;27;20042;-64
2021/10/05 00:31:01;;;;;;;5.32;1.23;;;12.60;87.50;;;;;;5106929;27;20042;-64
2021/10/05 00:33:27;;;;;;;5.90;1.27;;;12.60;87.80;;;;;;5105057;27;20055;-64
2021/10/05 00:35:53;;;;;;;3.97;0.90;;;12.50;87.90;;;;;;5105859;27;20042;-64
2021/10/05 00:38:19;;;;;;;6.20;1.25;;;12.50;88.30;;;;;;5107968;27;20219;-64
2021/10/05 00:40:45;;;;;;;3.00;1.10;;;12.40;88.50;;;;;;5108859;27;20035;-65
2021/10/05 00:43:11;;;;;;;6.30;1.58;;;12.40;88.60;;;;;;5097880;28;20040;-64
2021/10/05 00:45:37;;;;;;;5.57;2.00;;;12.30;88.80;;;;;;5093266;28;20058;-64
2021/10/05 00:48:04;;;;;;;3.90;1.33;;;12.30;89.00;;;;;;5082324;27;20495;-64
2021/10/05 00:50:31;;;;;;;7.60;1.30;;;12.30;89.20;;;;;;5105307;27;20641;-64
2021/10/05 00:52:57;;;;;;;6.90;1.73;;;12.30;89.40;;;;;;5108818;27;20052;-64
2021/10/05 00:55:23;;;;;;;3.63;1.23;;;12.20;89.50;;;;;;5108341;27;20483;-64
2021/10/05 00:57:52;;;;;;;2.58;1.55;;;12.20;89.70;;;;;;5105589;27;20092;-64
2021/10/05 01:00:19;;;;;;;5.80;2.00;;;12.10;89.70;;;;;;5104713;27;20063;-64
2021/10/05 01:02:45;;;;;;;6.78;1.55;;;12.10;90.00;;;;;;5103932;27;20124;-64
2021/10/05 01:05:11;;;;;;;5.68;2.13;;;12.00;90.10;;;;;;5098788;27;20173;-64
2021/10/05 01:07:37;;;;;;;5.72;2.08;;;12.00;90.20;;;;;;5108794;27;20055;-64
2021/10/05 01:10:04;;;;;;;6.60;2.17;;;11.90;90.30;;;;;;5102165;27;20054;-64
2021/10/05 01:12:29;;;;;;;7.65;2.13;;;11.90;90.50;;;;;;5106879;27;20067;-64
2021/10/05 01:14:55;;;;;;;6.25;2.15;;;11.80;90.60;;;;;;5106576;27;20427;-64
2021/10/05 01:17:21;;;;;;;6.38;2.70;;;11.70;90.80;;;;;;5104541;27;20066;-65
2021/10/05 01:19:47;;;;;;;3.33;2.13;;;11.60;90.90;;;;;;5092111;27;20052;-64
2021/10/05 01:22:13;;;;;;;7.70;2.47;;;11.50;91.10;;;;;;5105978;27;20085;-64
2021/10/05 01:24:39;;;;;;;7.28;2.50;;;11.50;91.20;;;;;;5100089;27;20032;-64
2021/10/05 01:27:05;;;;;;;4.75;3.00;;;11.40;91.40;;;;;;5123411;27;20047;-65
2021/10/05 01:29:33;;;;;;;6.20;2.35;;;11.30;91.60;;;;;;5104054;27;20035;-64
2021/10/05 01:32:02;;;;;;;4.82;2.63;;;11.30;91.80;;;;;;5106552;27;20039;-65
2021/10/05 01:34:28;;;;;;;5.97;2.65;;;11.20;91.90;;;;;;5106557;27;20038;-65
2021/10/05 01:36:58;;;;;;;8.70;2.58;;;11.10;92.10;;;;;;5108275;27;20055;-64
2021/10/05 01:39:29;;;;;;;5.18;2.30;;;11.10;92.20;;;;;;5104748;27;20544;-64
2021/10/05 01:42:14;;;;;;;6.40;2.38;;;11.00;92.30;;;;;;5106062;27;20492;-64
2021/10/05 01:44:41;;;;;;;8.05;2.97;;;11.00;92.30;;;;;;5093543;27;20068;-64
2021/10/05 01:47:08;;;;;;;3.72;2.15;;;10.90;92.40;;;;;;5081101;27;20152;-64
2021/10/05 01:49:35;;;;;;;5.97;2.53;;;11.00;92.40;;;;;;5105515;27;20032;-64
2021/10/05 01:52:02;;;;;;;4.55;2.10;;;11.00;92.40;;;;;;5104748;27;20200;-64
2021/10/05 01:54:28;;;;;;;5.13;2.17;;;11.00;92.30;;;;;;5106912;27;20043;-64
2021/10/05 01:56:53;;;;;;;4.10;2.10;;;11.00;92.20;;;;;;5104315;27;20388;-64
2021/10/05 01:59:19;;;;;;;5.80;2.17;;;11.00;92.30;;;;;;5103643;27;20049;-63
2021/10/05 02:01:45;;;;;;;5.13;2.38;;;11.10;92.20;;;;;;5107743;27;20074;-63
2021/10/05 02:04:11;;;;;;;4.28;2.25;;;11.10;92.20;;;;;;5106541;27;20047;-63
2021/10/05 02:06:40;;;;;;;8.93;2.45;;;11.10;92.20;;;;;;5108934;27;20039;-64
2021/10/05 02:09:08;;;;;;;10.52;2.80;;;11.20;92.10;;;;;;5105789;27;20035;-64
2021/10/05 02:11:35;;;;;;;7.68;2.35;;;11.20;92.00;;;;;;5108862;27;20452;-63
2021/10/05 02:14:01;;;;;;;8.15;2.50;;;11.20;91.90;;;;;;5080152;28;20115;-63
2021/10/05 02:16:26;;;;;;;7.03;2.30;;;11.30;91.90;;;;;;5102464;27;20051;-64
2021/10/05 02:18:52;;;;;;;7.38;2.45;;;11.30;91.90;;;;;;5103634;27;20035;-64
2021/10/05 02:21:18;;;;;;;5.43;2.33;;;11.30;91.90;;;;;;5103320;27;20039;-63
2021/10/05 02:26:32;;;;;;;3.40;2.53;;;11.30;91.90;;;;;;5109149;27;20086;-64
2021/10/05 02:28:58;;;;;;;8.52;3.05;;;11.30;91.90;;;;;;5099954;27;21492;-64
2021/10/05 02:31:24;;;;;;;5.85;2.65;;;11.30;92.00;;;;;;5103840;27;20376;-63
2021/10/05 02:33:49;;;;;;;7.93;2.92;;;11.30;92.00;;;;;;5103584;27;20047;-63
2021/10/05 02:36:15;;;;;;;6.60;3.65;;;11.30;92.10;;;;;;5103447;27;20809;-63
2021/10/05 02:38:41;;;;;;;5.57;2.70;;;11.20;92.30;;;;;;5103191;27;20044;-63
2021/10/05 02:41:06;;;;;;;9.65;2.72;;;11.10;92.20;;;;;;5106287;27;20122;-63
2021/10/05 02:43:32;;;;;;;5.13;3.00;;;11.10;92.30;;;;;;5105746;27;20040;-64
2021/10/05 02:45:58;;;;;;;7.63;3.10;;;11.10;92.40;;;;;;5107744;27;20065;-64
2021/10/05 02:48:24;;;;;;;4.72;2.83;;;11.10;92.40;;;;;;5102563;27;20055;-63
2021/10/05 02:50:50;;;;;;;4.53;2.80;;;11.00;92.50;;;;;;5101604;27;20035;-64
2021/10/05 02:53:16;;;;;;;6.63;3.30;;;11.00;92.60;;;;;;5101255;27;20548;-64
2021/10/05 02:55:41;;;;;;;7.47;3.25;;;10.90;92.70;;;;;;5105593;27;20424;-63
2021/10/05 02:58:08;;;;;;;8.57;2.90;;;10.90;92.80;;;;;;5105673;27;20035;-64
2021/10/05 03:00:34;;;;;;;7.30;2.78;;;10.90;92.90;;;;;;5107067;27;20036;-63
2021/10/05 03:03:00;;;;;;;7.57;3.63;;;10.80;93.00;;;;;;5105192;27;20050;-63
2021/10/05 03:05:25;;;;;;;5.88;3.00;;;10.80;93.00;;;;;;5101473;27;20043;-64
2021/10/05 03:07:51;;;;;;;4.18;2.97;;;10.70;93.20;;;;;;5104387;27;20734;-64
2021/10/05 03:10:17;;;;;;;6.70;2.70;;;10.70;93.30;;;;;;5101127;27;20497;-63
2021/10/05 03:12:42;;;;;;;7.20;3.08;;;10.70;93.30;;;;;;5103737;28;20046;-64
2021/10/05 03:15:08;;;;;;;4.35;3.28;;;10.70;93.40;;;;;;5107350;28;20048;-64
2021/10/05 03:17:34;;;;;;;7.10;3.97;;;10.70;93.40;;;;;;5102328;28;20038;-64
2021/10/05 03:20:00;;;;;;;4.15;2.80;;;10.70;93.50;;;;;;5105239;28;20027;-64
2021/10/05 03:22:26;;;;;;;6.70;3.30;;;10.70;93.50;;;;;;5105774;28;20184;-64
2021/10/05 03:24:52;;;;;;;7.78;2.90;;;10.70;93.50;;;;;;5103604;27;20404;-63
2021/10/05 03:27:17;;;;;;;4.57;2.92;;;10.70;93.60;;;;;;5107572;27;20055;-64
2021/10/05 03:29:43;;;;;;;5.38;3.20;;;10.70;93.60;;;;;;5105404;28;20043;-64
2021/10/05 03:32:09;;;;;;;6.60;3.40;;;10.70;93.70;;;;;;5103146;28;20094;-64
2021/10/05 03:34:35;;;;;;;7.30;3.15;;;10.70;93.70;;;;;;5105031;27;20040;-64
2021/10/05 03:37:00;;;;;;;9.57;3.22;;;10.70;93.80;;;;;;5105427;28;20400;-64
2021/10/05 03:39:26;;;;;;;4.75;3.00;;;10.70;93.90;;;;;;5102956;28;20095;-64
2021/10/05 03:41:52;;;;;;;7.88;3.10;;;10.70;94.00;;;;;;5107403;28;20028;-64
2021/10/05 03:44:17;;;;;;;9.75;3.20;;;10.70;94.00;;;;;;5104449;27;20036;-64
2021/10/05 03:46:43;;;;;;;4.85;3.25;;;10.70;94.00;;;;;;5109232;27;20087;-64
2021/10/05 03:49:09;;;;;;;11.95;3.28;;;10.70;94.10;;;;;;5108442;27;20389;-64
2021/10/05 03:51:35;;;;;;;6.55;3.70;;;10.70;94.10;;;;;;5108101;27;20087;-63
2021/10/05 03:54:01;;;;;;;5.50;3.60;;;10.60;94.10;;;;;;5110090;27;20058;-63
2021/10/05 03:56:26;;;;;;;9.07;4.03;;;10.60;94.20;;;;;;5106584;27;20073;-64
2021/10/05 03:58:52;;;;;;;6.38;3.45;;;10.60;94.30;;;;;;5106062;27;20054;-64
2021/10/05 04:01:18;;;;;;;9.10;3.55;;;10.60;94.40;;;;;;5109489;27;20070;-64
2021/10/05 04:03:44;;;;;;;6.30;3.55;;;10.60;94.40;;;;;;5109259;27;20074;-63
2021/10/05 04:06:10;;;;;;;7.72;3.72;;;10.60;94.60;;;;;;5105924;27;20044;-64
2021/10/05 04:08:37;;;;;;;5.70;3.22;;;10.60;94.50;;;;;;5109117;27;20047;-64
2021/10/05 04:11:05;;;;;;;6.28;3.58;;;10.60;94.50;;;;;;5106740;27;20071;-64
2021/10/05 04:13:31;;;;;;;6.47;3.83;;;10.60;94.50;;;;;;5106549;27;20058;-63
2021/10/05 04:15:56;;;;;;;4.43;3.00;;;10.60;94.50;;;;;;5109881;27;20043;-64
2021/10/05 04:18:22;;;;;;;4.90;3.30;;;10.60;94.50;;;;;;5109680;27;20036;-64
2021/10/05 04:20:48;;;;;;;4.85;3.42;;;10.60;94.50;;;;;;5105731;27;20122;-63
2021/10/05 04:23:14;;;;;;;7.57;3.80;;;10.70;94.50;;;;;;5105815;27;20139;-63
2021/10/05 04:25:39;;;;;;;5.55;3.28;;;10.70;94.50;;;;;;5110717;27;20035;-63
2021/10/05 04:28:05;;;;;;;4.78;3.33;;;10.70;94.50;;;;;;5105596;27;20047;-63
2021/10/05 04:30:31;;;;;;;6.85;3.53;;;10.80;94.40;;;;;;5105028;27;20054;-64
2021/10/05 04:32:57;;;;;;;6.25;3.95;;;10.70;94.40;;;;;;5107471;27;20039;-63
2021/10/05 04:35:22;;;;;;;6.63;3.47;;;10.70;94.50;;;;;;5109240;27;20035;-64
2021/10/05 04:37:48;;;;;;;6.32;3.50;;;10.70;94.60;;;;;;5067522;28;20038;-64
2021/10/05 04:40:14;;;;;;;8.10;4.15;;;10.70;94.70;;;;;;5108929;27;20622;-64
2021/10/05 04:42:40;;;;;;;8.10;3.72;;;10.70;94.60;;;;;;5106680;27;20117;-64
2021/10/05 04:45:07;;;;;;;7.55;4.35;;;10.70;94.60;;;;;;5090112;27;20088;-63
2021/10/05 04:47:35;;;;;;;5.60;4.00;;;10.70;94.70;;;;;;5105565;27;20391;-64
2021/10/05 04:50:02;;;;;;;8.75;4.07;;;10.70;94.70;;;;;;5100909;27;20083;-64
2021/10/05 04:52:31;;;;;;;8.57;4.18;;;10.70;94.70;;;;;;5104434;27;20448;-64
2021/10/05 04:54:57;;;;;;;6.47;4.18;;;10.70;94.70;;;;;;5107594;27;20035;-64
2021/10/05 04:57:23;;;;;;;6.00;3.92;;;10.70;94.70;;;;;;5109375;27;20036;-64
2021/10/05 04:59:49;;;;;;;7.40;4.00;;;10.70;94.80;;;;;;5103360;27;20470;-64
2021/10/05 05:02:14;;;;;;;4.10;3.60;;;10.60;94.70;;;;;;5107640;27;20103;-64
2021/10/05 05:04:40;;;;;;;8.48;4.25;;;10.70;94.80;;;;;;5107764;27;20048;-64
2021/10/05 05:07:06;;;;;;;9.48;4.22;;;10.70;94.80;;;;;;5106227;27;20075;-70
2021/10/05 05:09:32;;;;;;;11.27;4.40;;;10.60;94.80;;;;;;5080418;27;20048;-70
2021/10/05 05:11:57;;;;;;;5.40;4.18;;;10.70;94.90;;;;;;5105031;27;20043;-70
2021/10/05 05:14:24;;;;;;;8.60;4.32;;;10.60;94.90;;;;;;5081923;27;20467;-70
2021/10/05 05:16:49;;;;;;;6.45;4.22;;;10.60;94.90;;;;;;5082307;27;20035;-70
2021/10/05 05:19:15;;;;;;;17.27;4.80;;;10.60;95.00;;;;;;5105530;27;20546;-70
2021/10/05 05:21:42;;;;;;;7.32;4.10;;;10.60;95.00;;;;;;5107262;27;20040;-68
2021/10/05 05:24:08;;;;;;;6.22;4.22;;;10.60;95.00;;;;;;5104622;27;20403;-68
2021/10/05 05:26:34;;;;;;;6.10;4.53;;;10.60;95.00;;;;;;5091596;27;20087;-68
2021/10/05 05:29:00;;;;;;;6.18;4.72;;;10.60;95.00;;;;;;5102433;27;20063;-68
2021/10/05 05:31:26;;;;;;;5.75;4.72;;;10.60;95.00;;;;;;5109201;27;20062;-68
2021/10/05 05:33:51;;;;;;;6.97;5.05;;;10.70;95.00;;;;;;5106849;27;20472;-68
2021/10/05 05:36:17;;;;;;;8.85;5.35;;;10.70;95.00;;;;;;5105308;27;20047;-68
2021/10/05 05:38:43;;;;;;;6.60;4.75;;;10.70;95.00;;;;;;5102002;27;20082;-67
2021/10/05 05:41:09;;;;;;;5.72;4.72;;;10.70;94.90;;;;;;5107541;27;20384;-68
2021/10/05 05:43:35;;;;;;;7.50;5.43;;;10.70;95.00;;;;;;5102365;27;20035;-68
2021/10/05 05:46:01;;;;;;;6.38;5.10;;;10.70;94.90;;;;;;5082518;27;20043;-68
2021/10/05 05:48:27;;;;;;;9.02;5.25;;;10.70;95.10;;;;;;5105837;27;20035;-68
2021/10/05 05:50:53;;;;;;;5.95;4.38;;;10.70;94.90;;;;;;5096916;27;20075;-65
2021/10/05 05:53:18;;;;;;;8.13;5.25;;;10.80;94.90;;;;;;5104728;27;20047;-71
2021/10/05 05:55:44;;;;;;;5.88;4.93;;;10.80;94.90;;;;;;5104050;27;20047;-67
2021/10/05 05:58:11;;;;;;;10.50;4.85;;;10.80;94.90;;;;;;5103901;27;20051;-66
2021/10/05 06:00:37;;;;;;;7.93;5.03;;;10.80;94.90;;;;;;5107529;27;21251;-67
2021/10/05 06:03:03;;;;;;;5.82;4.50;;;10.80;94.90;;;;;;5078334;27;20047;-68
2021/10/05 06:05:29;;;;;;;7.20;4.43;;;10.70;94.90;;;;;;5103156;27;20100;-66
2021/10/05 06:07:54;;;;;;;8.98;4.88;;;10.80;95.00;;;;;;5102632;27;20096;-70
2021/10/05 06:10:20;;;;;;;6.93;4.80;;;10.80;95.00;;;;;;5105905;27;20035;-69
2021/10/05 06:12:46;;;;;;;6.25;4.45;;;10.80;95.20;;;;;;5102444;27;20391;-68
2021/10/05 06:15:14;;;;;;;8.45;4.95;;;10.80;95.00;;;;;;5107238;27;20688;-69
2021/10/05 06:17:41;;;;;;;6.20;5.07;;;10.80;95.10;;;;;;5101046;27;20054;-67
2021/10/05 06:20:13;;;;;;;9.05;4.65;;;10.80;95.10;;;;;;5106920;27;20086;-73
2021/10/05 06:22:40;;;;;;;7.40;4.95;;;10.80;95.10;;;;;;5099892;27;20052;-73
2021/10/05 06:25:08;;;;;;;11.45;5.40;;;10.80;95.10;;;;;;5101654;27;20120;-73
2021/10/05 06:27:34;;;;;;;10.02;4.75;;;10.80;95.20;;;;;;5103201;27;20048;-73
2021/10/05 06:30:00;;;;;;;8.93;4.88;;;10.80;95.20;;;;;;5104246;27;20038;-73
2021/10/05 06:32:26;;;;;;;5.85;4.60;;;10.80;95.10;;;;;;5100625;27;20039;-73
2021/10/05 06:34:53;;;;;;;5.97;4.32;;;10.80;95.00;;;;;;5077300;28;20043;-74
2021/10/05 06:37:18;;;;;;;6.03;4.60;;;10.80;95.00;;;;;;5099978;27;20486;-73
2021/10/05 06:39:45;;;;;;;6.25;4.45;;;10.80;95.00;;;;;;5085767;28;20039;-74
2021/10/05 06:42:11;;;;;;;8.50;4.35;;;10.80;95.00;;;;;;5107419;27;20493;-73
2021/10/05 06:44:37;;;;;;;7.38;4.22;;;10.80;95.00;;;;;;5104158;27;20043;-71
2021/10/05 06:47:03;;;;;;;6.72;4.43;;;10.80;95.10;;;;;;5085516;27;20116;-72
2021/10/05 06:49:28;;;;;;;6.18;4.45;;;10.80;95.10;;;;;;5106168;27;20784;-67
2021/10/05 06:51:54;;;;;;;7.63;4.75;;;10.80;95.20;;;;;;5104855;27;20108;-67
2021/10/05 06:54:20;;;;;;;6.13;4.10;;;10.80;95.10;;;;;;5105637;27;20167;-68
2021/10/05 06:56:46;;;;;;;6.30;4.72;;;11.00;95.00;;;;;;5105570;27;20083;-69
2021/10/05 06:59:12;;;;;;;7.00;4.72;;;11.10;95.00;;;;;;5064752;28;20782;-66
2021/10/05 07:01:37;;;;;;;6.68;4.22;;;11.20;94.90;;;;;;5099867;27;20394;-66
2021/10/05 07:04:03;;;;;;;5.43;3.67;;;11.40;94.50;;;;;;5104205;27;20051;-65
2021/10/05 07:06:29;;;;;;;5.80;3.88;;;11.50;94.40;;;;;;5081800;27;20126;-70
2021/10/05 07:08:55;;;;;;;8.43;4.47;;;11.50;94.30;;;;;;5089185;28;20649;-69
2021/10/05 07:11:21;;;;;;;7.55;4.15;;;11.60;94.20;;;;;;5079990;27;20048;-67
2021/10/05 07:13:47;;;;;;;6.18;3.95;;;11.70;94.00;;;;;;5107342;27;20039;-66
2021/10/05 07:16:13;;;;;;;8.52;4.72;;;11.90;93.90;;;;;;5106736;28;20047;-69
2021/10/05 07:18:39;;;;;;;5.55;4.00;;;12.00;93.70;;;;;;5105777;28;20031;-68
2021/10/05 07:21:05;;;;;;;7.15;4.20;;;12.00;93.50;;;;;;5104265;28;20046;-66
2021/10/05 07:23:30;;;;;;;8.57;5.22;;;12.00;93.50;;;;;;5106314;28;20039;-66
2021/10/05 07:25:56;;;;;;;7.40;5.50;;;12.00;93.30;;;;;;5102114;28;20043;-71
2021/10/05 07:28:22;;;;;;;6.40;5.68;;;12.00;93.40;;;;;;5101673;28;20470;-69
2021/10/05 07:30:48;;;;;;;6.28;5.20;;;12.10;93.30;;;;;;5082195;28;20559;-66
2021/10/05 07:33:14;;;;;;;9.27;5.32;;;12.10;93.10;;;;;;5106533;27;20044;-67
2021/10/05 07:35:41;;;;;;;6.82;4.47;;;12.20;93.00;;;;;;5089529;28;20036;-65
2021/10/05 07:38:07;;;;;;;8.05;5.22;;;12.30;92.90;;;;;;5103601;28;20044;-65
2021/10/05 07:40:33;;;;;;;7.75;5.03;;;12.40;92.80;;;;;;5089948;28;20039;-66
2021/10/05 07:43:01;;;;;;;8.07;5.95;;;12.50;92.70;;;;;;5079707;28;20048;-65
2021/10/05 07:45:29;;;;;;;9.00;4.68;;;12.60;92.40;;;;;;5065599;28;20045;-66
2021/10/05 07:47:56;;;;;;;6.63;3.72;;;12.60;92.40;;;;;;5106941;28;20040;-66
2021/10/05 07:50:22;;;;;;;7.68;4.47;;;12.70;92.00;;;;;;5106958;28;20115;-65
2021/10/05 07:52:48;;;;;;;7.90;5.13;;;12.70;92.00;;;;;;5099376;28;20055;-64
2021/10/05 07:55:14;;;;;;;8.52;5.78;;;12.70;92.10;;;;;;5098706;28;20485;-65
2021/10/05 07:57:40;;;;;;;8.43;4.72;;;12.60;91.90;;;;;;5104650;28;20036;-65
2021/10/05 08:00:07;;;;;;;6.80;4.35;;;12.50;92.10;;;;;;5106271;28;20488;-67
2021/10/05 08:02:33;;;;;;;5.32;4.32;;;12.40;92.20;;;;;;5106837;28;20058;-67
2021/10/05 08:04:59;;;;;;;7.65;5.65;;;12.40;92.60;;;;;;5110553;27;20043;-66
2021/10/05 08:07:27;;;;;;;6.53;5.00;;;12.50;92.30;;;;;;5094774;28;20066;-68
2021/10/05 08:09:57;;;;;;;6.30;4.18;;;12.40;92.30;;;;;;5108167;28;20104;-68
2021/10/05 08:12:23;;;;;;;6.53;5.32;;;12.40;92.30;;;;;;5107429;28;20043;-68
2021/10/05 08:14:51;;;;;;;6.63;4.75;;;12.40;92.40;;;;;;5105171;28;20071;-69
2021/10/05 08:17:17;;;;;;;7.80;5.07;;;12.40;92.50;;;;;;5101804;28;20050;-68
2021/10/05 08:19:43;;;;;;;9.18;5.50;;;12.40;92.60;;;;;;5108763;28;20088;-70
2021/10/05 08:22:10;;;;;;;5.60;4.65;;;12.50;92.50;;;;;;5092273;28;20069;-68
2021/10/05 08:24:36;;;;;;;5.85;5.10;;;12.50;92.50;;;;;;5100613;28;20082;-68
2021/10/05 08:27:05;;;;;;;6.05;5.45;;;12.50;92.50;;;;;;5105364;28;20389;-68
2021/10/05 08:29:32;;;;;;;9.13;5.68;;;12.50;92.50;;;;;;5107800;27;20039;-61
2021/10/05 08:31:58;;;;;;;6.68;6.00;;;12.50;92.60;;;;;;5098244;27;20050;-62
2021/10/05 08:34:24;;;;;;;6.38;5.78;;;12.60;92.70;;;;;;5110004;27;20036;-62
2021/10/05 08:36:50;;;;;;;9.88;6.22;;;12.80;92.70;;;;;;5106579;27;20043;-68
2021/10/05 08:39:16;;;;;;;10.18;6.20;;;12.90;92.60;;;;;;5105782;27;20045;-68
2021/10/05 08:41:47;;;;;;;7.80;5.43;;;13.00;92.30;;;;;;5107060;27;20107;-62
2021/10/05 08:44:14;;;;;;;8.43;6.35;;;12.90;92.10;;;;;;5107549;27;20054;-62
2021/10/05 08:46:41;;;;;;;8.00;5.88;;;12.80;92.20;;;;;;5106180;27;20081;-68
2021/10/05 08:49:07;;;;;;;8.93;6.40;;;12.70;92.40;;;;;;5108911;27;20118;-68
2021/10/05 08:51:34;;;;;;;13.02;6.63;;;12.60;92.60;;;;;;5105431;27;20439;-67
2021/10/05 08:53:59;;;;;;;7.85;6.20;;;12.60;92.70;;;;;;5108435;27;20052;-68
2021/10/05 08:56:25;;;;;;;8.15;7.22;;;12.60;92.70;;;;;;5107628;27;20038;-68
2021/10/05 08:58:51;;;;;;;12.52;7.30;;;12.60;92.70;;;;;;5104000;27;20059;-67
2021/10/05 09:01:18;;;;;;;9.02;7.95;;;12.60;92.80;;;;;;5107254;27;20039;-68
2021/10/05 09:03:52;;;;;;;8.30;7.28;;;12.60;93.00;;;;;;5108162;27;20035;-68
2021/10/05 09:06:20;;;;;;;8.68;7.80;;;12.60;93.00;;;;;;5104135;27;20039;-69
2021/10/05 09:08:47;;;;;;;14.38;7.88;;;12.60;93.20;;;;;;5108496;27;20044;-70
2021/10/05 09:11:14;;;;;;;10.70;8.18;;;12.60;93.30;;;;;;5109705;27;20089;-68
2021/10/05 09:13:43;;;;;;;10.50;8.25;;;12.70;93.20;;;;;;5111000;27;20044;-67
2021/10/05 09:16:29;;;;;;;10.27;8.18;;;12.70;93.10;;;;;;5108536;27;20031;-68
2021/10/05 09:18:59;;;;;;;8.25;7.35;;;12.70;93.10;;;;;;5106469;27;20046;-68
2021/10/05 09:21:34;;;;;;;8.30;7.45;;;12.70;93.10;;;;;;5110999;27;20063;-68
2021/10/05 09:24:28;;;;;;;8.35;7.47;;;12.70;93.10;;;;;;5100073;27;20042;-68
2021/10/05 09:26:59;;;;;;;11.18;8.30;;;12.80;93.20;;;;;;5109427;27;20044;-68
2021/10/05 09:29:33;;;;;;;8.55;7.70;;;12.90;93.20;;;;;;5106943;27;20044;-68
2021/10/05 09:32:04;;;;;;;8.55;7.72;;;13.00;93.10;;;;;;5111272;27;20530;-68
2021/10/05 09:34:38;;;;;;;9.18;7.55;;;13.20;92.90;;;;;;5105550;27;20051;-68
2021/10/05 09:37:18;;;;;;;15.20;8.70;;;13.40;92.70;;;;;;5104542;27;20051;-68
2021/10/05 09:39:57;;;;;;;8.77;7.90;;;13.60;92.40;;;;;;5107704;27;20043;-68
2021/10/05 09:42:29;;;;;;;10.80;7.50;;;13.80;92.10;;;;;;5109388;27;20036;-70
2021/10/05 09:45:07;;;;;;;8.60;7.50;;;13.90;92.10;;;;;;5104703;27;20044;-69
2021/10/05 09:47:37;;;;;;;8.57;6.75;;;14.10;92.20;;;;;;5107027;27;20040;-68
2021/10/05 09:50:32;;;;;;;6.95;6.25;;;14.20;92.10;;;;;;5111173;27;20043;-69
2021/10/05 09:53:04;;;;;;;6.40;5.80;;;14.30;91.80;;;;;;5101560;27;20048;-70
2021/10/05 09:55:33;;;;;;;8.77;6.30;;;14.40;91.60;;;;;;5080604;27;20086;-69
2021/10/05 09:57:59;;;;;;;8.07;5.38;;;14.50;91.30;;;;;;5107321;27;20502;-69
2021/10/05 10:00:29;;;;;;;5.32;3.80;;;14.70;91.20;;;;;;5099237;27;20062;-69
2021/10/05 10:02:55;;;;;;;5.38;4.28;;;14.80;90.90;;;;;;5103807;27;20047;-69
2021/10/05 10:05:23;;;;;;;5.53;3.63;;;15.00;90.80;;;;;;5093754;27;20100;-70
2021/10/05 10:07:54;;;;;;;4.65;3.55;;;15.10;90.50;;;;;;5112406;27;20096;-70
2021/10/05 10:10:26;;;;;;;7.57;4.28;;;15.20;89.90;;;;;;5104457;27;20032;-68
2021/10/05 10:13:12;;;;;;;10.45;5.40;;;15.40;90.20;;;;;;5105101;27;20403;-70
2021/10/05 10:15:42;;;;;;;6.55;4.55;;;15.60;90.20;;;;;;5110602;27;20129;-68
2021/10/05 10:18:15;;;;;;;5.07;3.00;;;15.70;89.80;;;;;;5106914;27;20506;-68
2021/10/05 10:20:45;;;;;;;;;;;15.80;88.50;;;;;;5109063;27;20356;-67
2021/10/05 10:23:22;;;;;;;5.00;3.17;;;15.80;88.10;;;;;;5104878;27;19926;-69
2021/10/05 10:26:04;;;;;;;5.90;3.35;;;15.80;88.80;;;;;;5103238;27;20031;-68
2021/10/05 10:28:35;;;;;;;6.65;2.95;;;15.70;88.40;;;;;;5105028;27;20036;-68
2021/10/05 10:31:04;;;;;;;4.07;2.78;;;15.80;87.90;;;;;;5105156;27;20070;-69
2021/10/05 10:33:45;;;;;;;2.53;2.10;;;15.80;88.90;;;;;;5107888;27;20082;-69
2021/10/05 10:36:11;;;;;;;5.15;2.17;;;15.80;88.40;;;;;;5103448;27;20031;-68
2021/10/05 10:38:42;;;;;;;5.40;2.25;;;15.80;88.20;;;;;;5108202;27;20031;-68
2021/10/05 10:41:19;;;;;;;4.43;2.30;;;15.90;86.70;;;;;;5080340;28;20031;-68
2021/10/05 10:44:01;;;;;;;5.80;2.30;;;16.00;86.30;;;;;;5104010;27;20110;-68
2021/10/05 10:46:30;;;;;;;2.78;2.05;;;16.00;85.70;;;;;;5107234;27;20127;-68
2021/10/05 10:48:58;;;;;;;4.30;2.10;;;16.20;85.90;;;;;;5108015;27;20044;-68
2021/10/05 10:51:29;;;;;;;3.45;2.17;;;16.30;85.30;;;;;;5107392;27;20043;-67
2021/10/05 10:53:57;;;;;;;4.07;2.60;;;16.50;84.50;;;;;;5101981;27;20055;-67
2021/10/05 10:56:35;;;;;;;2.47;1.65;;;16.50;82.80;;;;;;5081247;28;20499;-67
2021/10/05 10:59:06;;;;;;;5.50;1.83;;;16.50;83.10;;;;;;5111356;27;20040;-68
2021/10/05 11:01:45;;;;;;;5.88;2.33;;;16.40;83.50;;;;;;5096063;27;20074;-68
2021/10/05 11:04:12;;;;;;;5.78;2.45;;;16.40;83.80;;;;;;5106055;27;20046;-70
2021/10/05 11:06:38;;;;;;;5.05;1.95;;;16.50;82.50;;;;;;5108084;27;20039;-69
2021/10/05 11:09:06;;;;;;;3.13;2.10;;;16.40;83.70;;;;;;5108127;27;20718;-69
2021/10/05 11:11:43;;;;;;;2.83;2.20;;;16.40;84.50;;;;;;5101775;27;20054;-68
2021/10/05 11:14:14;;;;;;;4.53;2.75;;;16.50;84.60;;;;;;5107747;27;20050;-70
2021/10/05 11:16:42;;;;;;;5.45;2.38;;;16.60;84.30;;;;;;5107154;28;20039;-69
2021/10/05 11:19:12;;;;;;;6.15;3.00;;;16.60;83.30;;;;;;5104509;28;20092;-69
2021/10/05 11:21:42;;;;;;;4.00;2.58;;;16.60;82.40;;;;;;5089222;28;20386;-69
2021/10/05 11:24:08;;;;;;;4.72;3.00;;;16.50;82.60;;;;;;5108983;28;20060;-69
2021/10/05 11:26:52;;;;;;;5.43;2.50;;;16.40;83.00;;;;;;5109158;28;20048;-69
2021/10/05 11:29:27;;;;;;;4.00;2.50;;;16.40;84.40;;;;;;5101374;28;20488;-68
2021/10/05 11:31:59;;;;;;;4.55;2.20;;;16.40;84.20;;;;;;5106444;27;20063;-69
2021/10/05 11:34:26;;;;;;;3.42;2.30;;;16.50;83.40;;;;;;5104609;28;20067;-69
2021/10/05 11:36:52;;;;;;;5.50;2.20;;;16.50;84.20;;;;;;5102041;28;20043;-69
2021/10/05 11:39:24;;;;;;;6.10;2.75;;;16.50;84.70;;;;;;5102707;28;20047;-70
2021/10/05 11:41:56;;;;;;;4.28;2.30;;;16.50;84.00;;;;;;5098195;28;20044;-69
2021/10/05 11:44:26;;;;;;;3.65;2.10;;;16.50;83.20;;;;;;5092240;28;20052;-69
2021/10/05 11:46:56;;;;;;;5.03;1.95;;;16.70;82.10;;;;;;5108647;28;20032;-70
2021/10/05 11:49:25;;;;;;;2.63;1.92;;;16.70;82.10;;;;;;5107939;28;20050;-69
2021/10/05 11:51:52;;;;;;;3.25;1.92;;;16.80;82.00;;;;;;5103982;28;20048;-69
2021/10/05 11:54:22;;;;;;;5.78;2.78;;;16.90;80.90;;;;;;5108907;27;22211;-70
2021/10/05 11:56:48;;;;;;;3.90;2.03;;;16.90;80.90;;;;;;5108309;28;20118;-70
2021/10/05 11:59:28;;;;;;;3.85;1.60;;;16.90;81.80;;;;;;5105264;28;20119;-70
2021/10/05 12:01:57;;;;;;;3.60;1.63;;;16.90;80.80;;;;;;5102012;28;20031;-70
2021/10/05 12:04:27;;;;;;;3.58;1.52;;;16.90;81.30;;;;;;5109826;27;20108;-69
2021/10/05 12:07:01;;;;;;;2.67;1.70;;;16.90;81.10;;;;;;5114913;27;20084;-69
2021/10/05 12:09:30;;;;;;;3.88;2.03;;;16.80;79.20;;;;;;5104760;27;20120;-71
2021/10/05 12:12:08;;;;;;;3.28;1.88;;;16.80;79.10;;;;;;5107939;27;20114;-69
2021/10/05 12:14:37;;;;;;;5.07;1.63;;;16.70;79.80;;;;;;5107711;27;20035;-71
2021/10/05 12:17:11;;;;;;;2.53;1.45;;;16.70;79.90;;;;;;5087924;27;20032;-68
2021/10/05 12:19:41;;;;;;;2.85;1.45;;;16.70;80.50;;;;;;5109308;27;20072;-69
2021/10/05 12:22:09;;;;;;;2.53;1.70;;;16.90;80.80;;;;;;5107338;27;20163;-68
2021/10/05 12:24:52;;;;;;;3.13;1.85;;;16.90;80.30;;;;;;5111159;27;20075;-69
2021/10/05 12:27:40;;;;;;;4.13;1.60;;;17.00;78.90;;;;;;5108867;27;20036;-68
2021/10/05 12:30:18;;;;;;;4.80;1.65;;;17.00;79.40;;;;;;5105825;27;20453;-68
2021/10/05 12:32:51;;;;;;;5.15;1.13;;;17.00;80.00;;;;;;5107139;27;20082;-69
2021/10/05 12:35:36;;;;;;;4.88;1.50;;;17.10;80.40;;;;;;5110266;27;20050;-68
2021/10/05 12:38:17;;;;;;;9.60;1.38;;;17.20;79.40;;;;;;5103998;27;20050;-69
2021/10/05 12:40:55;;;;;;;3.92;1.23;;;17.30;78.60;;;;;;5084356;27;20038;-69
2021/10/05 12:43:39;;;;;;;2.85;1.38;;;17.30;79.20;;;;;;5113814;27;20495;-68
2021/10/05 12:46:19;;;;;;;4.95;2.30;;;17.30;79.20;;;;;;5104999;27;20124;-68
2021/10/05 12:48:50;;;;;;;3.13;1.35;;;17.40;78.80;;;;;;5107085;27;20035;-68
2021/10/05 12:51:26;;;;;;;3.67;1.23;;;17.30;78.70;;;;;;5109130;27;20051;-69
2021/10/05 12:53:56;;;;;;;3.33;1.40;;;17.30;78.80;;;;;;5095033;27;20494;-68